createdAt,value
2019-03-13T00:00:10.073Z,3.20
2019-03-13T00:02:36.614Z,2.90
2019-03-13T00:05:04.357Z,3.15
2019-03-13T00:07:30.803Z,3.75
2019-03-13T00:09:57.239Z,2.70
2019-03-13T00:12:23.873Z,2.33
2019-03-13T00:14:50.302Z,3.60
2019-03-13T00:17:16.735Z,2.10
2019-03-13T00:19:43.994Z,2.85
2019-03-13T00:22:10.423Z,2.87
2019-03-13T00:24:36.976Z,3.37
2019-03-13T00:27:03.415Z,3.10
2019-03-13T00:29:29.851Z,2.98
2019-03-13T00:31:59.651Z,3.40
2019-03-13T00:34:26.335Z,2.15
2019-03-13T00:36:52.762Z,3.58
2019-03-13T00:39:19.178Z,2.85
2019-03-13T00:41:45.631Z,3.10
2019-03-13T00:44:12.058Z,2.87
2019-03-13T00:46:38.526Z,3.25
2019-03-13T00:49:04.959Z,2.87
2019-03-13T00:51:31.489Z,2.55
2019-03-13T00:53:58.024Z,3.10
2019-03-13T00:56:24.452Z,2.52
2019-03-13T00:58:50.890Z,3.30
2019-03-13T01:01:34.353Z,3.30
2019-03-13T01:04:02.702Z,2.42
2019-03-13T01:06:31.041Z,2.98
2019-03-13T01:08:57.484Z,3.05
2019-03-13T01:11:27.137Z,2.67
2019-03-13T01:13:52.334Z,2.70
2019-03-13T01:16:18.770Z,2.45
2019-03-13T01:18:45.195Z,3.05
2019-03-13T01:21:11.626Z,3.98
2019-03-13T01:23:38.082Z,3.05
2019-03-13T01:26:04.523Z,3.10
2019-03-13T01:28:30.950Z,3.12
2019-03-13T01:31:05.411Z,2.90
2019-03-13T01:33:31.855Z,3.77
2019-03-13T01:36:03.102Z,3.27
2019-03-13T01:38:29.538Z,3.92
2019-03-13T01:40:55.978Z,3.27
2019-03-13T01:43:22.420Z,3.65
2019-03-13T01:45:48.867Z,2.83
2019-03-13T01:48:15.303Z,3.33
2019-03-13T01:50:41.746Z,3.83
2019-03-13T01:53:08.179Z,3.83
2019-03-13T01:55:34.631Z,4.17
2019-03-13T01:58:01.043Z,3.25
2019-03-13T02:00:27.607Z,3.02
2019-03-13T02:02:54.043Z,3.15
2019-03-13T02:05:20.467Z,3.55
2019-03-13T02:07:46.903Z,3.75
2019-03-13T02:10:13.426Z,3.08
2019-03-13T02:12:39.866Z,3.60
2019-03-13T02:15:14.322Z,3.25
2019-03-13T02:17:40.774Z,3.12
2019-03-13T02:20:08.103Z,3.15
2019-03-13T02:22:34.523Z,3.50
2019-03-13T02:25:00.955Z,2.83
2019-03-13T02:27:27.369Z,2.87
2019-03-13T02:29:56.588Z,3.45
2019-03-13T02:32:23.022Z,2.98
2019-03-13T02:34:49.450Z,4.25
2019-03-13T02:37:15.882Z,3.98
2019-03-13T02:39:42.327Z,2.92
2019-03-13T02:42:08.859Z,3.60
2019-03-13T02:44:35.286Z,3.05
2019-03-13T02:47:01.718Z,3.45
2019-03-13T02:49:28.143Z,3.47
2019-03-13T02:51:54.575Z,3.27
2019-03-13T02:54:21.012Z,4.90
2019-03-13T02:56:47.468Z,3.02
2019-03-13T02:59:17.176Z,2.65
2019-03-13T03:01:48.396Z,2.80
2019-03-13T03:04:14.838Z,3.27
2019-03-13T03:06:42.369Z,3.30
2019-03-13T03:09:08.808Z,4.65
2019-03-13T03:11:35.245Z,3.42
2019-03-13T03:14:01.747Z,3.98
2019-03-13T03:16:28.224Z,3.85
2019-03-13T03:18:54.727Z,4.20
2019-03-13T03:21:21.174Z,3.35
2019-03-13T03:23:47.598Z,4.08
2019-03-13T03:26:15.986Z,4.72
2019-03-13T03:28:42.432Z,3.83
2019-03-13T03:31:08.960Z,3.20
2019-03-13T03:33:35.405Z,4.62
2019-03-13T03:36:01.935Z,5.55
2019-03-13T03:38:28.359Z,4.35
2019-03-13T03:40:54.806Z,3.45
2019-03-13T03:43:21.319Z,4.03
2019-03-13T03:45:47.763Z,5.17
2019-03-13T03:48:14.312Z,4.95
2019-03-13T03:50:40.730Z,3.80
2019-03-13T03:53:07.172Z,4.42
2019-03-13T03:55:33.699Z,3.60
2019-03-13T03:58:00.150Z,4.92
2019-03-13T04:00:26.607Z,4.87
2019-03-13T04:02:53.051Z,3.40
2019-03-13T04:05:19.592Z,4.08
2019-03-13T04:07:46.015Z,4.67
2019-03-13T04:10:13.094Z,4.22
2019-03-13T04:12:39.593Z,4.78
2019-03-13T04:15:09.742Z,4.00
2019-03-13T04:17:36.169Z,4.03
2019-03-13T04:20:04.519Z,4.30
2019-03-13T04:22:30.959Z,4.72
2019-03-13T04:25:08.468Z,5.17
2019-03-13T04:27:34.992Z,4.12
2019-03-13T04:30:01.435Z,4.03
2019-03-13T04:32:27.871Z,4.17
2019-03-13T04:34:54.296Z,4.45
2019-03-13T04:37:20.720Z,4.50
2019-03-13T04:39:47.156Z,5.08
2019-03-13T04:42:13.593Z,4.90
2019-03-13T04:44:40.035Z,4.72
2019-03-13T04:47:06.482Z,5.03
2019-03-13T04:49:32.996Z,5.28
2019-03-13T04:51:59.419Z,5.35
2019-03-13T04:54:25.856Z,5.25
2019-03-13T04:56:52.286Z,4.08
2019-03-13T04:59:18.730Z,4.72
2019-03-13T05:01:45.173Z,4.90
2019-03-13T05:04:11.728Z,6.05
2019-03-13T05:06:38.155Z,6.25
2019-03-13T05:09:06.033Z,5.92
2019-03-13T05:11:32.494Z,5.12
2019-03-13T05:13:58.935Z,5.15
2019-03-13T05:16:25.371Z,6.12
2019-03-13T05:18:51.807Z,5.15
2019-03-13T05:21:18.294Z,5.03
2019-03-13T05:23:44.816Z,5.45
2019-03-13T05:26:11.251Z,6.47
2019-03-13T05:28:37.683Z,6.53
2019-03-13T05:31:04.130Z,5.87
2019-03-13T05:33:30.559Z,5.58
2019-03-13T05:35:56.987Z,5.42
2019-03-13T05:38:23.420Z,6.15
2019-03-13T05:40:49.862Z,6.08
2019-03-13T05:43:16.401Z,5.35
2019-03-13T05:45:42.835Z,6.50
2019-03-13T05:48:09.273Z,6.45
2019-03-13T05:50:35.699Z,6.95
2019-03-13T05:53:02.138Z,6.30
2019-03-13T05:55:28.579Z,5.10
2019-03-13T05:57:55.014Z,7.50
2019-03-13T06:00:33.974Z,6.15
2019-03-13T06:03:00.399Z,5.90
2019-03-13T06:05:26.909Z,5.75
2019-03-13T06:07:53.370Z,5.90
2019-03-13T06:10:19.791Z,5.78
2019-03-13T06:12:46.236Z,6.20
2019-03-13T06:15:13.274Z,5.20
2019-03-13T06:17:41.602Z,5.65
2019-03-13T06:20:17.245Z,6.35
2019-03-13T06:22:43.678Z,6.55
2019-03-13T06:25:10.527Z,7.53
2019-03-13T06:27:36.946Z,4.90
2019-03-13T06:30:05.278Z,5.97
2019-03-13T06:32:31.715Z,6.42
2019-03-13T06:34:58.255Z,6.65
2019-03-13T06:37:24.678Z,6.62
2019-03-13T06:39:51.114Z,7.00
2019-03-13T06:42:17.637Z,7.28
2019-03-13T06:44:44.065Z,5.45
2019-03-13T06:47:10.501Z,5.25
2019-03-13T06:49:37.024Z,6.42
2019-03-13T06:52:03.452Z,6.65
2019-03-13T06:54:29.882Z,6.22
2019-03-13T06:56:56.315Z,6.65
2019-03-13T06:59:24.664Z,6.10
2019-03-13T07:02:01.908Z,7.53
2019-03-13T07:04:30.246Z,5.92
2019-03-13T07:06:58.573Z,6.20
2019-03-13T07:09:26.890Z,6.08
2019-03-13T07:12:02.325Z,7.40
2019-03-13T07:14:30.696Z,6.95
2019-03-13T07:16:59.042Z,7.08
2019-03-13T07:19:27.390Z,6.95
2019-03-13T07:21:55.760Z,6.65
2019-03-13T07:24:24.102Z,6.58
2019-03-13T07:26:55.051Z,6.15
2019-03-13T07:29:23.404Z,5.62
2019-03-13T07:31:54.782Z,5.97
2019-03-13T07:34:35.249Z,7.40
2019-03-13T07:37:03.579Z,5.75
2019-03-13T07:39:37.894Z,7.33
2019-03-13T07:42:14.940Z,6.15
2019-03-13T07:44:58.521Z,6.35
2019-03-13T07:47:31.675Z,7.83
2019-03-13T07:50:00.002Z,6.97
2019-03-13T07:52:28.333Z,7.15
2019-03-13T07:54:56.661Z,7.70
2019-03-13T07:57:24.999Z,6.62
2019-03-13T08:00:10.090Z,6.33
2019-03-13T08:02:50.619Z,5.95
2019-03-13T08:05:27.878Z,6.78
2019-03-13T08:07:56.209Z,6.58
2019-03-13T08:10:41.515Z,6.25
2019-03-13T08:13:18.825Z,6.65
2019-03-13T08:15:59.365Z,5.95
2019-03-13T08:18:30.592Z,6.15
2019-03-13T08:21:04.854Z,5.28
2019-03-13T08:23:33.187Z,5.05
2019-03-13T08:26:01.527Z,5.58
2019-03-13T08:28:29.871Z,5.35
2019-03-13T08:31:10.386Z,4.67
2019-03-13T08:33:55.551Z,4.05
2019-03-13T08:36:23.952Z,5.00
2019-03-13T08:39:02.235Z,5.50
2019-03-13T08:41:30.596Z,4.42
2019-03-13T08:43:58.931Z,6.15
2019-03-13T08:46:30.198Z,4.62
2019-03-13T08:49:07.771Z,5.15
2019-03-13T08:51:41.891Z,4.87
2019-03-13T08:54:10.226Z,5.23
2019-03-13T08:56:55.325Z,5.08
2019-03-13T08:59:26.751Z,5.95
2019-03-13T09:01:55.155Z,5.55
2019-03-13T09:04:23.494Z,6.85
2019-03-13T09:07:10.070Z,6.15
2019-03-13T09:09:41.285Z,5.20
2019-03-13T09:12:12.750Z,5.83
2019-03-13T09:14:43.954Z,6.70
2019-03-13T09:17:30.135Z,5.62
2019-03-13T09:20:01.526Z,5.40
2019-03-13T09:22:41.987Z,5.40
2019-03-13T09:25:19.962Z,6.65
2019-03-13T09:27:48.294Z,7.25
2019-03-13T09:30:31.903Z,6.00
2019-03-13T09:33:03.216Z,6.53
2019-03-13T09:35:40.678Z,6.65
2019-03-13T09:38:09.011Z,6.10
2019-03-13T09:40:40.274Z,5.12
2019-03-13T09:43:25.543Z,6.72
2019-03-13T09:45:56.783Z,6.45
2019-03-13T09:48:31.088Z,5.90
2019-03-13T09:51:08.447Z,5.78
2019-03-13T09:53:42.728Z,6.17
2019-03-13T09:56:20.103Z,5.90
2019-03-13T09:58:54.367Z,13.72
2019-03-13T10:01:22.719Z,11.18
2019-03-13T10:03:56.965Z,8.00
2019-03-13T10:06:42.142Z,6.85
2019-03-13T10:09:13.712Z,6.70
2019-03-13T10:11:48.063Z,6.50
2019-03-13T10:14:28.559Z,5.55
2019-03-13T10:17:12.156Z,5.92
2019-03-13T10:19:49.467Z,5.45
2019-03-13T10:22:29.871Z,6.60
2019-03-13T10:25:04.138Z,6.33
2019-03-13T10:27:32.518Z,5.12
2019-03-13T10:30:07.074Z,5.50
2019-03-13T10:32:35.406Z,5.47
2019-03-13T10:35:12.707Z,5.45
2019-03-13T10:37:43.964Z,5.17
2019-03-13T10:40:15.243Z,5.90
2019-03-13T10:42:52.758Z,4.92
2019-03-13T10:45:21.094Z,5.08
2019-03-13T10:47:51.374Z,6.45
2019-03-13T10:50:36.474Z,5.55
2019-03-13T10:53:10.741Z,5.55
2019-03-13T10:55:45.144Z,4.97
2019-03-13T10:58:13.497Z,6.97
2019-03-13T11:00:41.864Z,5.45
2019-03-13T11:03:16.134Z,4.92
2019-03-13T11:06:06.224Z,5.30
2019-03-13T11:08:37.559Z,4.95
2019-03-13T11:11:05.897Z,4.40
2019-03-13T11:13:34.218Z,4.45
2019-03-13T11:16:05.455Z,4.15
2019-03-13T11:18:39.727Z,4.40
2019-03-13T11:21:29.353Z,4.58
2019-03-13T11:24:07.866Z,3.90
2019-03-13T11:26:36.226Z,5.25
2019-03-13T11:29:10.735Z,4.20
2019-03-13T11:31:41.947Z,4.28
2019-03-13T11:34:13.175Z,4.45
2019-03-13T11:36:47.506Z,5.78
2019-03-13T11:39:34.304Z,4.87
2019-03-13T11:42:14.778Z,4.60
2019-03-13T11:44:46.154Z,4.47
2019-03-13T11:47:14.500Z,4.33
2019-03-13T11:49:51.863Z,4.40
2019-03-13T11:52:29.208Z,4.22
2019-03-13T11:55:03.606Z,4.78
2019-03-13T11:57:35.048Z,4.67
2019-03-13T12:00:06.277Z,5.15
2019-03-13T12:02:37.538Z,4.65
2019-03-13T12:05:19.418Z,4.37
2019-03-13T12:08:05.942Z,4.33
2019-03-13T12:10:34.263Z,4.20
2019-03-13T12:13:02.594Z,3.90
2019-03-13T12:15:30.934Z,3.95
2019-03-13T12:18:05.173Z,5.05
2019-03-13T12:20:42.600Z,5.60
2019-03-13T12:23:23.118Z,6.45
2019-03-13T12:25:57.627Z,4.47
2019-03-13T12:28:44.225Z,5.03
2019-03-13T12:48:23.167Z,3.35
2019-03-13T12:50:55.831Z,3.42
2019-03-13T12:53:25.970Z,3.02
2019-03-13T12:55:58.831Z,4.12
2019-03-13T12:58:31.510Z,4.12
2019-03-13T13:01:13.459Z,4.75
2019-03-13T13:04:01.726Z,4.08
2019-03-13T13:06:46.943Z,4.00
2019-03-13T13:09:19.751Z,4.55
2019-03-13T13:11:55.625Z,5.10
2019-03-13T13:14:28.455Z,4.90
2019-03-13T13:16:58.626Z,5.20
2019-03-13T13:19:27.041Z,4.83
2019-03-13T13:21:58.202Z,5.83
2019-03-13T13:24:26.643Z,5.12
2019-03-13T13:26:55.087Z,4.83
2019-03-13T13:29:23.531Z,4.65
2019-03-13T13:31:55.033Z,5.50
2019-03-13T13:34:22.113Z,5.83
2019-03-13T13:36:52.096Z,4.60
2019-03-13T13:39:20.547Z,5.37
2019-03-13T13:41:48.984Z,6.50
2019-03-13T13:44:19.045Z,5.42
2019-03-13T13:46:50.265Z,4.05
2019-03-13T13:49:18.699Z,4.35
2019-03-13T13:51:47.139Z,5.47
2019-03-13T13:54:15.573Z,5.60
2019-03-13T13:56:44.015Z,5.03
2019-03-13T13:59:12.458Z,5.17
2019-03-13T14:01:40.898Z,5.37
2019-03-13T14:04:09.398Z,4.50
2019-03-13T14:06:37.835Z,3.90
2019-03-13T14:09:06.659Z,3.12
2019-03-13T14:11:35.093Z,3.35
2019-03-13T14:14:03.529Z,3.20
2019-03-13T14:16:31.953Z,3.02
2019-03-13T14:19:00.395Z,2.62
2019-03-13T14:21:28.831Z,3.72
2019-03-13T14:23:57.277Z,2.75
2019-03-13T14:26:25.719Z,3.50
2019-03-13T14:28:54.154Z,3.20
2019-03-13T14:31:22.597Z,3.67
2019-03-13T14:33:55.553Z,3.55
2019-03-13T14:36:23.999Z,3.22
2019-03-13T14:38:52.427Z,3.80
2019-03-13T14:41:20.859Z,4.28
2019-03-13T14:43:49.327Z,4.37
2019-03-13T14:46:17.766Z,4.67
2019-03-13T14:48:46.201Z,4.60
2019-03-13T14:51:14.640Z,4.00
2019-03-13T14:53:43.079Z,5.15
2019-03-13T14:56:11.507Z,4.50
2019-03-13T14:58:39.969Z,3.87
2019-03-13T15:01:08.480Z,5.00
2019-03-13T15:03:36.928Z,4.90
2019-03-13T15:06:05.366Z,5.10
2019-03-13T15:08:33.790Z,5.80
2019-03-13T15:11:02.238Z,4.65
2019-03-13T15:13:30.703Z,4.47
2019-03-13T15:15:59.150Z,5.80
2019-03-13T15:18:27.648Z,4.42
2019-03-13T15:20:56.075Z,5.97
2019-03-13T15:23:24.515Z,4.80
2019-03-13T15:25:52.958Z,4.72
2019-03-13T15:28:21.402Z,5.10
2019-03-13T15:30:49.842Z,4.40
2019-03-13T15:33:18.310Z,5.05
2019-03-13T15:35:46.737Z,4.00
2019-03-13T15:38:15.166Z,4.42
2019-03-13T15:40:43.605Z,4.25
2019-03-13T15:43:12.044Z,3.47
2019-03-13T15:45:40.495Z,5.45
2019-03-13T15:48:08.991Z,3.33
2019-03-13T15:50:37.449Z,3.72
2019-03-13T15:53:05.963Z,3.30
2019-03-13T15:55:34.399Z,3.60
2019-03-13T15:58:02.844Z,3.58
2019-03-13T16:00:31.706Z,4.25
2019-03-13T16:03:00.152Z,4.17
2019-03-13T16:05:28.577Z,3.80
2019-03-13T16:07:57.020Z,5.12
2019-03-13T16:10:25.450Z,5.03
2019-03-13T16:12:55.548Z,4.12
2019-03-13T16:15:27.067Z,4.87
2019-03-13T16:17:55.499Z,4.97
2019-03-13T16:20:23.999Z,5.90
2019-03-13T16:22:56.598Z,4.20
2019-03-13T16:25:25.055Z,5.15
2019-03-13T16:27:55.135Z,6.67
2019-03-13T16:30:26.698Z,5.55
2019-03-13T16:32:55.155Z,5.05
2019-03-13T16:35:26.370Z,5.65
2019-03-13T16:37:53.755Z,6.08
2019-03-13T16:40:22.189Z,5.90
2019-03-13T16:42:50.610Z,5.72
2019-03-13T16:45:20.586Z,5.87
2019-03-13T16:47:49.016Z,6.12
2019-03-13T16:50:28.914Z,7.25
2019-03-13T16:52:57.356Z,5.92
2019-03-13T16:55:25.795Z,6.65
2019-03-13T16:57:54.233Z,5.72
2019-03-13T17:00:26.950Z,6.17
2019-03-13T17:02:55.544Z,5.45
2019-03-13T17:05:24.110Z,6.03
2019-03-13T17:07:52.695Z,5.65
2019-03-13T17:10:22.567Z,5.53
2019-03-13T17:12:51.078Z,7.05
2019-03-13T17:15:23.608Z,6.15
2019-03-13T17:17:52.470Z,5.40
2019-03-13T17:20:26.645Z,5.75
2019-03-13T17:22:55.285Z,6.55
2019-03-13T17:25:23.722Z,6.05
2019-03-13T17:27:52.146Z,6.30
2019-03-13T17:30:22.989Z,6.00
2019-03-13T17:32:54.166Z,6.53
2019-03-13T17:35:22.738Z,5.55
2019-03-13T17:37:51.351Z,6.58
2019-03-13T17:40:28.076Z,7.30
2019-03-13T17:42:56.519Z,7.20
2019-03-13T17:45:25.386Z,6.97
2019-03-13T17:47:54.261Z,7.42
2019-03-13T17:50:26.145Z,8.33
2019-03-13T17:52:56.630Z,8.25
2019-03-13T17:55:25.984Z,9.20
2019-03-13T17:57:54.501Z,8.33
2019-03-13T18:00:32.626Z,8.30
2019-03-13T18:03:01.050Z,8.33
2019-03-13T18:05:30.441Z,7.37
2019-03-13T18:07:58.881Z,7.92
2019-03-13T18:10:27.390Z,7.28
2019-03-13T18:12:55.831Z,8.03
2019-03-13T18:15:24.278Z,7.90
2019-03-13T18:17:52.727Z,7.67
2019-03-13T18:20:22.608Z,7.37
2019-03-13T18:22:51.115Z,6.78
2019-03-13T18:25:19.622Z,8.03
2019-03-13T18:27:48.069Z,7.55
2019-03-13T18:30:27.985Z,7.45
2019-03-13T18:32:56.491Z,8.13
2019-03-13T18:35:24.918Z,7.60
2019-03-13T18:37:53.367Z,8.63
2019-03-13T18:40:25.658Z,7.70
2019-03-13T18:42:54.098Z,8.58
2019-03-13T18:45:33.325Z,8.95
2019-03-13T18:48:01.765Z,8.83
2019-03-13T18:50:30.329Z,9.48
2019-03-13T18:52:58.768Z,7.60
2019-03-13T18:55:35.547Z,8.23
2019-03-13T18:58:04.422Z,7.47
2019-03-13T19:00:36.796Z,7.83
2019-03-13T19:03:07.179Z,7.90
2019-03-13T19:05:36.931Z,8.38
2019-03-13T19:08:06.209Z,7.72
2019-03-13T19:10:34.791Z,10.03
2019-03-13T19:13:03.387Z,8.20
2019-03-13T19:15:31.815Z,8.90
2019-03-13T19:18:01.046Z,10.38
2019-03-13T19:20:31.297Z,8.63
2019-03-13T19:22:59.718Z,8.25
2019-03-13T19:25:28.261Z,9.30
2019-03-13T19:27:58.368Z,8.73
2019-03-13T19:30:33.873Z,8.70
2019-03-13T19:33:02.376Z,8.20
2019-03-13T19:35:30.901Z,7.58
2019-03-13T19:38:05.121Z,8.05
2019-03-13T19:40:32.452Z,9.85
2019-03-13T19:43:00.874Z,8.03
2019-03-13T19:45:35.068Z,8.73
2019-03-13T19:48:06.435Z,9.90
2019-03-13T19:50:34.862Z,7.30
2019-03-13T19:53:03.389Z,8.88
2019-03-13T19:55:31.806Z,6.92
2019-03-13T19:58:02.910Z,7.53
2019-03-13T20:00:31.347Z,7.85
2019-03-13T20:03:08.803Z,7.20
2019-03-13T20:05:45.353Z,6.67
2019-03-13T20:08:07.470Z,7.58
2019-03-13T20:10:35.919Z,7.25
2019-03-13T20:13:23.687Z,6.85
2019-03-13T20:15:52.128Z,7.15
2019-03-13T20:18:20.575Z,7.03
2019-03-13T20:20:48.998Z,7.87
2019-03-13T20:23:17.912Z,7.65
2019-03-13T20:25:46.421Z,7.12
2019-03-13T20:28:14.866Z,6.28
2019-03-13T20:30:43.286Z,7.40
2019-03-13T20:33:11.802Z,7.03
2019-03-13T20:35:59.648Z,7.20
2019-03-13T20:38:28.084Z,7.90
2019-03-13T20:40:56.521Z,9.08
2019-03-13T20:43:24.948Z,6.85
2019-03-13T20:45:53.381Z,8.93
2019-03-13T20:48:21.821Z,7.75
2019-03-13T20:50:53.039Z,7.20
2019-03-13T20:53:21.466Z,7.50
2019-03-13T20:55:49.906Z,8.10
2019-03-13T20:58:18.346Z,8.85
2019-03-13T21:00:46.782Z,8.33
2019-03-13T21:03:15.286Z,7.70
2019-03-13T21:05:43.724Z,7.28
2019-03-13T21:08:12.159Z,7.75
2019-03-13T21:10:40.585Z,9.58
2019-03-13T21:13:09.030Z,5.78
2019-03-13T21:15:37.463Z,8.63
2019-03-13T21:18:05.898Z,8.73
2019-03-13T21:20:34.341Z,9.08
2019-03-13T21:23:02.761Z,9.08
2019-03-13T21:25:31.230Z,7.83
2019-03-13T21:27:59.654Z,7.15
2019-03-13T21:30:28.834Z,8.80
2019-03-13T21:32:57.710Z,8.03
2019-03-13T21:35:26.150Z,7.50
2019-03-13T21:37:54.660Z,8.10
2019-03-13T21:40:27.473Z,9.15
2019-03-13T21:42:55.978Z,8.70
2019-03-13T21:45:24.500Z,9.88
2019-03-13T21:47:53.266Z,7.85
2019-03-13T21:50:21.806Z,9.15
2019-03-13T21:52:50.233Z,8.63
2019-03-13T21:55:19.239Z,7.20
2019-03-13T21:57:51.889Z,7.67
2019-03-13T22:00:22.114Z,8.50
2019-03-13T22:02:50.613Z,7.37
2019-03-13T22:05:25.755Z,8.73
2019-03-13T22:07:49.477Z,8.85
2019-03-13T22:10:19.009Z,7.62
2019-03-13T22:12:47.502Z,7.08
2019-03-13T22:15:20.337Z,8.58
2019-03-13T22:17:48.836Z,6.30
2019-03-13T22:20:17.825Z,6.70
2019-03-13T22:22:46.603Z,7.40
2019-03-13T22:25:16.291Z,7.60
2019-03-13T22:27:44.802Z,6.50
2019-03-13T22:30:28.501Z,6.12
2019-03-13T22:32:56.220Z,5.67
2019-03-13T22:35:24.733Z,6.30
2019-03-13T22:37:53.243Z,7.25
2019-03-13T22:40:21.673Z,6.22
2019-03-13T22:42:50.113Z,6.05
2019-03-13T22:45:21.932Z,7.60
2019-03-13T22:47:50.357Z,7.12
2019-03-13T22:50:23.053Z,7.35
2019-03-13T22:52:51.581Z,8.75
2019-03-13T22:55:23.898Z,7.05
2019-03-13T22:57:52.388Z,7.60
2019-03-13T23:00:28.654Z,7.62
2019-03-13T23:02:57.171Z,6.00
2019-03-13T23:05:25.938Z,6.97
2019-03-13T23:07:54.383Z,7.40
2019-03-13T23:10:31.853Z,7.35
2019-03-13T23:13:00.373Z,7.10
2019-03-13T23:15:28.886Z,7.28
2019-03-13T23:17:57.331Z,7.28
2019-03-13T23:20:25.770Z,8.50
2019-03-13T23:22:54.209Z,8.15
2019-03-13T23:25:22.658Z,7.53
2019-03-13T23:27:51.169Z,7.42
2019-03-13T23:30:19.610Z,6.97
2019-03-13T23:32:48.038Z,7.45
2019-03-13T23:35:16.474Z,7.70
2019-03-13T23:37:44.901Z,8.80
2019-03-13T23:40:13.469Z,8.83
2019-03-13T23:42:41.910Z,8.95
2019-03-13T23:45:10.485Z,7.83
2019-03-13T23:47:38.992Z,6.17
2019-03-13T23:50:12.011Z,5.92
2019-03-13T23:52:40.462Z,6.75
2019-03-13T23:55:09.125Z,7.58
2019-03-13T23:57:37.807Z,7.05
